sensor_id;sensor_type;location;lat;lon;timestamp;temperature;humidity
26336;DHT22;14047;50.936;4.654;2024-03-08T00:02:47;5.40;99.90
26336;DHT22;14047;50.936;4.654;2024-03-08T00:05:14;5.40;99.90
26336;DHT22;14047;50.936;4.654;2024-03-08T00:07:41;5.50;99.90
26336;DHT22;14047;50.936;4.654;2024-03-08T00:10:11;5.50;99.90
26336;DHT22;14047;50.936;4.654;2024-03-08T00:12:39;5.50;99.90
26336;DHT22;14047;50.936;4.654;2024-03-08T00:15:15;5.50;99.90
26336;DHT22;14047;50.936;4.654;2024-03-08T00:17:42;5.40;99.90
26336;DHT22;14047;50.936;4.654;2024-03-08T00:20:08;5.20;99.90
26336;DHT22;14047;50.936;4.654;2024-03-08T00:22:35;5.20;99.90
26336;DHT22;14047;50.936;4.654;2024-03-08T00:25:05;5.20;99.90
26336;DHT22;14047;50.936;4.654;2024-03-08T00:27:34;5.30;99.90
26336;DHT22;14047;50.936;4.654;2024-03-08T00:30:00;5.30;99.90
26336;DHT22;14047;50.936;4.654;2024-03-08T00:32:28;5.20;99.90
26336;DHT22;14047;50.936;4.654;2024-03-08T00:34:54;5.30;99.90
26336;DHT22;14047;50.936;4.654;2024-03-08T00:37:20;5.30;99.90
26336;DHT22;14047;50.936;4.654;2024-03-08T00:39:50;5.30;99.90
26336;DHT22;14047;50.936;4.654;2024-03-08T00:42:16;5.30;99.90
26336;DHT22;14047;50.936;4.654;2024-03-08T00:44:42;5.20;99.90
26336;DHT22;14047;50.936;4.654;2024-03-08T00:47:09;5.30;99.90
26336;DHT22;14047;50.936;4.654;2024-03-08T00:49:35;5.30;99.90
26336;DHT22;14047;50.936;4.654;2024-03-08T00:52:02;5.30;99.90
26336;DHT22;14047;50.936;4.654;2024-03-08T00:54:28;5.30;99.90
26336;DHT22;14047;50.936;4.654;2024-03-08T00:56:56;5.20;99.90
26336;DHT22;14047;50.936;4.654;2024-03-08T00:59:22;5.20;99.90
26336;DHT22;14047;50.936;4.654;2024-03-08T01:01:48;5.10;99.90
26336;DHT22;14047;50.936;4.654;2024-03-08T01:04:14;5.10;99.90
26336;DHT22;14047;50.936;4.654;2024-03-08T01:06:40;5.10;99.90
26336;DHT22;14047;50.936;4.654;2024-03-08T01:09:06;5.00;99.90
26336;DHT22;14047;50.936;4.654;2024-03-08T01:11:35;4.90;99.90
26336;DHT22;14047;50.936;4.654;2024-03-08T01:14:00;4.90;99.90
26336;DHT22;14047;50.936;4.654;2024-03-08T01:16:27;4.80;99.90
26336;DHT22;14047;50.936;4.654;2024-03-08T01:18:53;4.80;99.90
26336;DHT22;14047;50.936;4.654;2024-03-08T01:21:19;4.80;99.90
26336;DHT22;14047;50.936;4.654;2024-03-08T01:23:45;4.70;99.90
26336;DHT22;14047;50.936;4.654;2024-03-08T01:26:11;4.70;99.90
26336;DHT22;14047;50.936;4.654;2024-03-08T01:28:37;4.70;99.90
26336;DHT22;14047;50.936;4.654;2024-03-08T01:31:03;4.80;99.90
26336;DHT22;14047;50.936;4.654;2024-03-08T01:33:31;4.90;99.90
26336;DHT22;14047;50.936;4.654;2024-03-08T01:35:58;4.90;99.90
26336;DHT22;14047;50.936;4.654;2024-03-08T01:38:24;4.90;99.90
26336;DHT22;14047;50.936;4.654;2024-03-08T01:40:51;4.80;99.90
26336;DHT22;14047;50.936;4.654;2024-03-08T01:43:27;4.80;99.90
26336;DHT22;14047;50.936;4.654;2024-03-08T01:46:00;4.90;99.90
26336;DHT22;14047;50.936;4.654;2024-03-08T01:48:27;4.80;99.90
26336;DHT22;14047;50.936;4.654;2024-03-08T01:50:56;4.80;99.90
26336;DHT22;14047;50.936;4.654;2024-03-08T01:53:24;4.80;99.90
26336;DHT22;14047;50.936;4.654;2024-03-08T01:55:55;4.80;99.90
26336;DHT22;14047;50.936;4.654;2024-03-08T01:58:22;4.80;99.90
26336;DHT22;14047;50.936;4.654;2024-03-08T02:00:49;4.70;99.90
26336;DHT22;14047;50.936;4.654;2024-03-08T02:03:16;4.70;99.90
26336;DHT22;14047;50.936;4.654;2024-03-08T02:05:42;4.80;99.90
26336;DHT22;14047;50.936;4.654;2024-03-08T02:08:09;4.70;99.90
26336;DHT22;14047;50.936;4.654;2024-03-08T02:10:49;4.70;99.90
26336;DHT22;14047;50.936;4.654;2024-03-08T02:13:15;4.70;99.90
26336;DHT22;14047;50.936;4.654;2024-03-08T02:15:55;4.50;99.90
26336;DHT22;14047;50.936;4.654;2024-03-08T02:18:23;4.50;99.90
26336;DHT22;14047;50.936;4.654;2024-03-08T02:20:57;4.50;99.90
26336;DHT22;14047;50.936;4.654;2024-03-08T02:23:23;4.50;99.90
26336;DHT22;14047;50.936;4.654;2024-03-08T02:25:54;4.40;99.90
26336;DHT22;14047;50.936;4.654;2024-03-08T02:28:21;4.40;99.90
26336;DHT22;14047;50.936;4.654;2024-03-08T02:30:47;4.40;99.90
26336;DHT22;14047;50.936;4.654;2024-03-08T02:33:17;4.10;99.90
26336;DHT22;14047;50.936;4.654;2024-03-08T02:35:44;4.20;99.90
26336;DHT22;14047;50.936;4.654;2024-03-08T02:38:17;4.20;99.90
26336;DHT22;14047;50.936;4.654;2024-03-08T02:40:45;4.30;99.90
26336;DHT22;14047;50.936;4.654;2024-03-08T02:43:13;4.40;99.90
26336;DHT22;14047;50.936;4.654;2024-03-08T02:45:40;4.30;99.90
26336;DHT22;14047;50.936;4.654;2024-03-08T02:48:08;4.30;99.90
26336;DHT22;14047;50.936;4.654;2024-03-08T02:50:34;4.30;99.90
26336;DHT22;14047;50.936;4.654;2024-03-08T02:53:01;4.20;99.90
26336;DHT22;14047;50.936;4.654;2024-03-08T02:55:30;4.10;99.90
26336;DHT22;14047;50.936;4.654;2024-03-08T02:57:56;4.10;99.90
26336;DHT22;14047;50.936;4.654;2024-03-08T03:00:23;4.00;99.90
26336;DHT22;14047;50.936;4.654;2024-03-08T03:02:50;4.10;99.90
26336;DHT22;14047;50.936;4.654;2024-03-08T03:05:20;4.20;99.90
26336;DHT22;14047;50.936;4.654;2024-03-08T03:07:46;4.10;99.90
26336;DHT22;14047;50.936;4.654;2024-03-08T03:10:17;4.00;99.90
26336;DHT22;14047;50.936;4.654;2024-03-08T03:12:44;4.00;99.90
26336;DHT22;14047;50.936;4.654;2024-03-08T03:15:12;4.10;99.90
26336;DHT22;14047;50.936;4.654;2024-03-08T03:17:39;4.00;99.90
26336;DHT22;14047;50.936;4.654;2024-03-08T03:20:09;4.00;99.90
26336;DHT22;14047;50.936;4.654;2024-03-08T03:22:39;4.20;99.90
26336;DHT22;14047;50.936;4.654;2024-03-08T03:25:10;4.00;99.90
26336;DHT22;14047;50.936;4.654;2024-03-08T03:27:37;4.00;99.90
26336;DHT22;14047;50.936;4.654;2024-03-08T03:30:04;4.00;99.90
26336;DHT22;14047;50.936;4.654;2024-03-08T03:32:50;4.00;99.90
26336;DHT22;14047;50.936;4.654;2024-03-08T03:35:17;3.90;99.90
26336;DHT22;14047;50.936;4.654;2024-03-08T03:37:44;3.90;99.90
26336;DHT22;14047;50.936;4.654;2024-03-08T03:40:17;3.80;99.90
26336;DHT22;14047;50.936;4.654;2024-03-08T03:42:45;3.90;99.90
26336;DHT22;14047;50.936;4.654;2024-03-08T03:45:11;3.90;99.90
26336;DHT22;14047;50.936;4.654;2024-03-08T03:47:37;3.90;99.90
26336;DHT22;14047;50.936;4.654;2024-03-08T03:50:07;3.80;99.90
26336;DHT22;14047;50.936;4.654;2024-03-08T03:52:33;3.80;99.90
26336;DHT22;14047;50.936;4.654;2024-03-08T03:54:59;3.80;99.90
26336;DHT22;14047;50.936;4.654;2024-03-08T03:57:25;3.80;99.90
26336;DHT22;14047;50.936;4.654;2024-03-08T03:59:51;3.90;99.90
26336;DHT22;14047;50.936;4.654;2024-03-08T04:02:17;3.90;99.90
26336;DHT22;14047;50.936;4.654;2024-03-08T04:04:47;3.90;99.90
26336;DHT22;14047;50.936;4.654;2024-03-08T04:07:13;3.80;99.90
26336;DHT22;14047;50.936;4.654;2024-03-08T04:09:39;3.70;99.90
26336;DHT22;14047;50.936;4.654;2024-03-08T04:12:05;3.80;99.90
26336;DHT22;14047;50.936;4.654;2024-03-08T04:14:31;3.70;99.90
26336;DHT22;14047;50.936;4.654;2024-03-08T04:16:57;3.70;99.90
26336;DHT22;14047;50.936;4.654;2024-03-08T04:19:23;3.70;99.90
26336;DHT22;14047;50.936;4.654;2024-03-08T04:21:50;3.80;99.90
26336;DHT22;14047;50.936;4.654;2024-03-08T04:24:16;3.80;99.90
26336;DHT22;14047;50.936;4.654;2024-03-08T04:26:42;3.80;99.90
26336;DHT22;14047;50.936;4.654;2024-03-08T04:29:09;3.80;99.90
26336;DHT22;14047;50.936;4.654;2024-03-08T04:31:35;3.60;99.90
26336;DHT22;14047;50.936;4.654;2024-03-08T04:34:01;3.60;99.90
26336;DHT22;14047;50.936;4.654;2024-03-08T04:36:27;3.60;99.90
26336;DHT22;14047;50.936;4.654;2024-03-08T04:38:54;3.70;99.90
26336;DHT22;14047;50.936;4.654;2024-03-08T04:41:20;3.80;99.90
26336;DHT22;14047;50.936;4.654;2024-03-08T04:43:46;3.80;99.90
26336;DHT22;14047;50.936;4.654;2024-03-08T04:46:12;3.80;99.90
26336;DHT22;14047;50.936;4.654;2024-03-08T04:48:38;3.80;99.90
26336;DHT22;14047;50.936;4.654;2024-03-08T04:51:04;3.70;99.90
26336;DHT22;14047;50.936;4.654;2024-03-08T04:53:31;3.70;99.90
26336;DHT22;14047;50.936;4.654;2024-03-08T04:55:58;3.70;99.90
26336;DHT22;14047;50.936;4.654;2024-03-08T04:58:24;3.60;99.90
26336;DHT22;14047;50.936;4.654;2024-03-08T05:00:50;3.60;99.90
26336;DHT22;14047;50.936;4.654;2024-03-08T05:03:16;3.60;99.90
26336;DHT22;14047;50.936;4.654;2024-03-08T05:05:42;3.60;99.90
26336;DHT22;14047;50.936;4.654;2024-03-08T05:08:08;3.60;99.90
26336;DHT22;14047;50.936;4.654;2024-03-08T05:10:34;3.70;99.90
26336;DHT22;14047;50.936;4.654;2024-03-08T05:13:00;3.70;99.90
26336;DHT22;14047;50.936;4.654;2024-03-08T05:15:29;3.80;99.90
26336;DHT22;14047;50.936;4.654;2024-03-08T05:17:55;3.70;99.90
26336;DHT22;14047;50.936;4.654;2024-03-08T05:20:23;3.80;99.90
26336;DHT22;14047;50.936;4.654;2024-03-08T05:22:49;3.60;99.90
26336;DHT22;14047;50.936;4.654;2024-03-08T05:25:16;3.50;99.90
26336;DHT22;14047;50.936;4.654;2024-03-08T05:27:43;3.60;99.90
26336;DHT22;14047;50.936;4.654;2024-03-08T05:30:09;3.60;99.90
26336;DHT22;14047;50.936;4.654;2024-03-08T05:32:41;3.60;99.90
26336;DHT22;14047;50.936;4.654;2024-03-08T05:35:11;3.50;99.90
26336;DHT22;14047;50.936;4.654;2024-03-08T05:37:41;3.40;99.90
26336;DHT22;14047;50.936;4.654;2024-03-08T05:40:07;3.50;99.90
26336;DHT22;14047;50.936;4.654;2024-03-08T05:42:35;3.40;99.90
26336;DHT22;14047;50.936;4.654;2024-03-08T05:45:03;3.30;99.90
26336;DHT22;14047;50.936;4.654;2024-03-08T05:47:29;3.40;99.90
26336;DHT22;14047;50.936;4.654;2024-03-08T05:49:55;3.40;99.90
26336;DHT22;14047;50.936;4.654;2024-03-08T05:52:21;3.50;99.90
26336;DHT22;14047;50.936;4.654;2024-03-08T05:54:47;3.50;99.90
26336;DHT22;14047;50.936;4.654;2024-03-08T05:57:13;3.40;99.90
26336;DHT22;14047;50.936;4.654;2024-03-08T05:59:45;3.50;99.90
26336;DHT22;14047;50.936;4.654;2024-03-08T06:02:11;3.50;99.90
26336;DHT22;14047;50.936;4.654;2024-03-08T06:04:37;3.50;99.90
26336;DHT22;14047;50.936;4.654;2024-03-08T06:07:03;3.50;99.90
26336;DHT22;14047;50.936;4.654;2024-03-08T06:09:29;3.40;99.90
26336;DHT22;14047;50.936;4.654;2024-03-08T06:11:55;3.30;99.90
26336;DHT22;14047;50.936;4.654;2024-03-08T06:14:23;3.20;99.90
26336;DHT22;14047;50.936;4.654;2024-03-08T06:16:48;3.20;99.90
26336;DHT22;14047;50.936;4.654;2024-03-08T06:19:17;3.10;99.90
26336;DHT22;14047;50.936;4.654;2024-03-08T06:21:43;3.20;99.90
26336;DHT22;14047;50.936;4.654;2024-03-08T06:24:09;3.10;99.90
26336;DHT22;14047;50.936;4.654;2024-03-08T06:26:36;3.10;99.90
26336;DHT22;14047;50.936;4.654;2024-03-08T06:29:03;3.10;99.90
26336;DHT22;14047;50.936;4.654;2024-03-08T06:31:32;3.20;99.90
26336;DHT22;14047;50.936;4.654;2024-03-08T06:33:58;3.20;99.90
26336;DHT22;14047;50.936;4.654;2024-03-08T06:36:24;3.20;99.90
26336;DHT22;14047;50.936;4.654;2024-03-08T06:38:51;3.30;99.90
26336;DHT22;14047;50.936;4.654;2024-03-08T06:41:17;3.30;99.90
26336;DHT22;14047;50.936;4.654;2024-03-08T06:43:44;3.20;99.90
26336;DHT22;14047;50.936;4.654;2024-03-08T06:46:11;3.30;99.90
26336;DHT22;14047;50.936;4.654;2024-03-08T06:48:40;3.30;99.90
26336;DHT22;14047;50.936;4.654;2024-03-08T06:51:06;3.40;99.90
26336;DHT22;14047;50.936;4.654;2024-03-08T06:53:32;3.50;99.90
26336;DHT22;14047;50.936;4.654;2024-03-08T06:56:01;3.50;99.90
26336;DHT22;14047;50.936;4.654;2024-03-08T06:58:27;3.60;99.90
26336;DHT22;14047;50.936;4.654;2024-03-08T07:00:54;3.70;99.90
26336;DHT22;14047;50.936;4.654;2024-03-08T07:03:24;3.80;99.90
26336;DHT22;14047;50.936;4.654;2024-03-08T07:05:50;3.70;99.90
26336;DHT22;14047;50.936;4.654;2024-03-08T07:08:16;3.70;99.90
26336;DHT22;14047;50.936;4.654;2024-03-08T07:10:42;3.90;99.90
26336;DHT22;14047;50.936;4.654;2024-03-08T07:13:11;3.90;99.90
26336;DHT22;14047;50.936;4.654;2024-03-08T07:15:37;4.10;99.90
26336;DHT22;14047;50.936;4.654;2024-03-08T07:18:03;4.10;99.90
26336;DHT22;14047;50.936;4.654;2024-03-08T07:20:29;4.10;99.90
26336;DHT22;14047;50.936;4.654;2024-03-08T07:22:55;4.20;99.90
26336;DHT22;14047;50.936;4.654;2024-03-08T07:25:21;4.20;99.90
26336;DHT22;14047;50.936;4.654;2024-03-08T07:27:56;4.30;99.90
26336;DHT22;14047;50.936;4.654;2024-03-08T07:30:25;4.20;99.90
26336;DHT22;14047;50.936;4.654;2024-03-08T07:33:21;4.40;99.90
26336;DHT22;14047;50.936;4.654;2024-03-08T07:35:48;4.50;99.90
26336;DHT22;14047;50.936;4.654;2024-03-08T07:38:16;4.50;99.90
26336;DHT22;14047;50.936;4.654;2024-03-08T07:40:42;4.60;99.90
26336;DHT22;14047;50.936;4.654;2024-03-08T07:43:11;4.70;99.90
26336;DHT22;14047;50.936;4.654;2024-03-08T07:45:38;4.70;99.90
26336;DHT22;14047;50.936;4.654;2024-03-08T07:48:04;4.80;99.90
26336;DHT22;14047;50.936;4.654;2024-03-08T07:50:39;4.90;99.90
26336;DHT22;14047;50.936;4.654;2024-03-08T07:53:10;5.00;99.90
26336;DHT22;14047;50.936;4.654;2024-03-08T07:55:36;5.10;99.90
26336;DHT22;14047;50.936;4.654;2024-03-08T07:58:03;5.20;99.90
26336;DHT22;14047;50.936;4.654;2024-03-08T08:00:30;5.30;99.90
26336;DHT22;14047;50.936;4.654;2024-03-08T08:02:57;5.30;99.90
26336;DHT22;14047;50.936;4.654;2024-03-08T08:05:23;5.30;99.90
26336;DHT22;14047;50.936;4.654;2024-03-08T08:07:49;5.40;99.90
26336;DHT22;14047;50.936;4.654;2024-03-08T08:10:16;5.40;99.90
26336;DHT22;14047;50.936;4.654;2024-03-08T08:12:50;5.40;99.90
26336;DHT22;14047;50.936;4.654;2024-03-08T08:15:19;5.50;99.90
26336;DHT22;14047;50.936;4.654;2024-03-08T08:17:46;5.50;99.90
26336;DHT22;14047;50.936;4.654;2024-03-08T08:20:12;5.60;99.90
26336;DHT22;14047;50.936;4.654;2024-03-08T08:22:41;5.70;99.90
26336;DHT22;14047;50.936;4.654;2024-03-08T08:25:09;5.80;99.90
26336;DHT22;14047;50.936;4.654;2024-03-08T08:27:38;5.90;99.90
26336;DHT22;14047;50.936;4.654;2024-03-08T08:30:06;5.90;99.90
26336;DHT22;14047;50.936;4.654;2024-03-08T08:32:37;5.90;99.90
26336;DHT22;14047;50.936;4.654;2024-03-08T08:35:03;6.00;99.90
26336;DHT22;14047;50.936;4.654;2024-03-08T08:37:33;6.10;99.90
26336;DHT22;14047;50.936;4.654;2024-03-08T08:40:03;6.10;99.90
26336;DHT22;14047;50.936;4.654;2024-03-08T08:42:34;6.10;99.90
26336;DHT22;14047;50.936;4.654;2024-03-08T08:45:00;6.20;99.90
26336;DHT22;14047;50.936;4.654;2024-03-08T08:47:34;6.30;99.90
26336;DHT22;14047;50.936;4.654;2024-03-08T08:50:00;6.40;99.90
26336;DHT22;14047;50.936;4.654;2024-03-08T08:52:30;6.40;99.90
26336;DHT22;14047;50.936;4.654;2024-03-08T08:54:57;6.40;99.90
26336;DHT22;14047;50.936;4.654;2024-03-08T08:57:23;6.50;99.90
26336;DHT22;14047;50.936;4.654;2024-03-08T08:59:49;6.60;99.90
26336;DHT22;14047;50.936;4.654;2024-03-08T09:02:16;6.60;99.90
26336;DHT22;14047;50.936;4.654;2024-03-08T09:04:43;6.70;99.90
26336;DHT22;14047;50.936;4.654;2024-03-08T09:07:10;6.80;99.90
26336;DHT22;14047;50.936;4.654;2024-03-08T09:09:36;6.90;99.90
26336;DHT22;14047;50.936;4.654;2024-03-08T09:12:02;7.00;99.90
26336;DHT22;14047;50.936;4.654;2024-03-08T09:14:28;7.10;99.90
26336;DHT22;14047;50.936;4.654;2024-03-08T09:16:54;7.10;99.90
26336;DHT22;14047;50.936;4.654;2024-03-08T09:19:20;7.20;99.90
26336;DHT22;14047;50.936;4.654;2024-03-08T09:21:48;7.20;99.90
26336;DHT22;14047;50.936;4.654;2024-03-08T09:24:14;7.20;99.90
26336;DHT22;14047;50.936;4.654;2024-03-08T09:26:41;7.30;99.90
26336;DHT22;14047;50.936;4.654;2024-03-08T09:29:09;7.40;99.90
26336;DHT22;14047;50.936;4.654;2024-03-08T09:31:37;7.40;99.90
26336;DHT22;14047;50.936;4.654;2024-03-08T09:34:04;7.60;99.90
26336;DHT22;14047;50.936;4.654;2024-03-08T09:36:30;7.60;99.90
26336;DHT22;14047;50.936;4.654;2024-03-08T09:38:58;7.80;99.90
26336;DHT22;14047;50.936;4.654;2024-03-08T09:41:24;7.90;99.90
26336;DHT22;14047;50.936;4.654;2024-03-08T09:43:50;7.90;99.90
26336;DHT22;14047;50.936;4.654;2024-03-08T09:46:18;7.90;99.90
26336;DHT22;14047;50.936;4.654;2024-03-08T09:48:45;8.00;99.90
26336;DHT22;14047;50.936;4.654;2024-03-08T09:51:12;8.00;99.90
26336;DHT22;14047;50.936;4.654;2024-03-08T09:53:41;8.00;99.90
26336;DHT22;14047;50.936;4.654;2024-03-08T09:56:10;8.10;99.90
26336;DHT22;14047;50.936;4.654;2024-03-08T09:58:38;8.20;99.90
26336;DHT22;14047;50.936;4.654;2024-03-08T10:01:17;8.30;99.90
26336;DHT22;14047;50.936;4.654;2024-03-08T10:03:44;8.50;99.90
26336;DHT22;14047;50.936;4.654;2024-03-08T10:06:13;8.50;99.90
26336;DHT22;14047;50.936;4.654;2024-03-08T10:08:42;8.60;99.90
26336;DHT22;14047;50.936;4.654;2024-03-08T10:11:08;8.70;99.90
26336;DHT22;14047;50.936;4.654;2024-03-08T10:13:34;8.90;99.90
26336;DHT22;14047;50.936;4.654;2024-03-08T10:16:00;8.90;99.90
26336;DHT22;14047;50.936;4.654;2024-03-08T10:18:27;8.90;99.90
26336;DHT22;14047;50.936;4.654;2024-03-08T10:21:03;8.90;99.90
26336;DHT22;14047;50.936;4.654;2024-03-08T10:23:30;9.00;99.90
26336;DHT22;14047;50.936;4.654;2024-03-08T10:25:57;9.10;99.90
26336;DHT22;14047;50.936;4.654;2024-03-08T10:28:24;9.20;99.90
26336;DHT22;14047;50.936;4.654;2024-03-08T10:30:50;9.30;99.90
26336;DHT22;14047;50.936;4.654;2024-03-08T10:33:16;9.30;99.90
26336;DHT22;14047;50.936;4.654;2024-03-08T10:35:43;9.30;99.90
26336;DHT22;14047;50.936;4.654;2024-03-08T10:38:14;9.50;99.90
26336;DHT22;14047;50.936;4.654;2024-03-08T10:40:44;9.60;99.90
26336;DHT22;14047;50.936;4.654;2024-03-08T10:43:18;9.70;99.90
26336;DHT22;14047;50.936;4.654;2024-03-08T10:45:54;9.90;99.90
26336;DHT22;14047;50.936;4.654;2024-03-08T10:48:31;10.00;99.90
26336;DHT22;14047;50.936;4.654;2024-03-08T10:51:02;10.20;99.90
26336;DHT22;14047;50.936;4.654;2024-03-08T10:53:29;10.10;99.90
26336;DHT22;14047;50.936;4.654;2024-03-08T10:55:58;10.20;99.90
26336;DHT22;14047;50.936;4.654;2024-03-08T10:58:26;10.20;99.90
26336;DHT22;14047;50.936;4.654;2024-03-08T11:00:54;10.20;99.90
26336;DHT22;14047;50.936;4.654;2024-03-08T11:09:03;10.50;99.90
26336;DHT22;14047;50.936;4.654;2024-03-08T11:11:39;10.70;99.90
26336;DHT22;14047;50.936;4.654;2024-03-08T11:14:43;10.70;99.90
26336;DHT22;14047;50.936;4.654;2024-03-08T11:17:10;10.70;99.90
26336;DHT22;14047;50.936;4.654;2024-03-08T11:19:36;10.70;99.90
26336;DHT22;14047;50.936;4.654;2024-03-08T11:22:03;10.60;99.90
26336;DHT22;14047;50.936;4.654;2024-03-08T11:24:39;10.60;99.90
26336;DHT22;14047;50.936;4.654;2024-03-08T11:27:06;10.70;99.90
26336;DHT22;14047;50.936;4.654;2024-03-08T11:29:33;10.70;99.90
26336;DHT22;14047;50.936;4.654;2024-03-08T11:32:11;10.80;99.90
26336;DHT22;14047;50.936;4.654;2024-03-08T11:34:47;10.80;99.90
26336;DHT22;14047;50.936;4.654;2024-03-08T11:37:14;10.90;99.90
26336;DHT22;14047;50.936;4.654;2024-03-08T11:39:51;11.00;99.90
26336;DHT22;14047;50.936;4.654;2024-03-08T11:42:18;11.10;99.90
26336;DHT22;14047;50.936;4.654;2024-03-08T11:44:46;11.30;99.90
26336;DHT22;14047;50.936;4.654;2024-03-08T11:47:14;11.10;99.90
26336;DHT22;14047;50.936;4.654;2024-03-08T11:49:40;11.10;99.90
26336;DHT22;14047;50.936;4.654;2024-03-08T11:52:17;11.20;99.90
26336;DHT22;14047;50.936;4.654;2024-03-08T11:54:54;11.20;99.90
26336;DHT22;14047;50.936;4.654;2024-03-08T11:57:23;11.30;99.90
26336;DHT22;14047;50.936;4.654;2024-03-08T11:59:53;11.40;99.90
26336;DHT22;14047;50.936;4.654;2024-03-08T12:02:19;11.50;99.90
26336;DHT22;14047;50.936;4.654;2024-03-08T12:04:45;11.60;99.90
26336;DHT22;14047;50.936;4.654;2024-03-08T12:07:15;11.90;99.90
26336;DHT22;14047;50.936;4.654;2024-03-08T12:10:17;11.90;99.90
26336;DHT22;14047;50.936;4.654;2024-03-08T12:12:53;11.80;99.90
26336;DHT22;14047;50.936;4.654;2024-03-08T12:15:22;11.70;99.90
26336;DHT22;14047;50.936;4.654;2024-03-08T12:17:50;11.70;99.90
26336;DHT22;14047;50.936;4.654;2024-03-08T12:20:25;11.80;99.90
26336;DHT22;14047;50.936;4.654;2024-03-08T12:22:53;11.90;99.90
26336;DHT22;14047;50.936;4.654;2024-03-08T12:25:19;12.10;99.90
26336;DHT22;14047;50.936;4.654;2024-03-08T12:27:46;12.30;99.90
26336;DHT22;14047;50.936;4.654;2024-03-08T12:32:57;12.50;99.90
26336;DHT22;14047;50.936;4.654;2024-03-08T12:35:29;12.60;99.90
26336;DHT22;14047;50.936;4.654;2024-03-08T12:37:56;12.40;99.90
26336;DHT22;14047;50.936;4.654;2024-03-08T12:40:31;12.50;99.90
26336;DHT22;14047;50.936;4.654;2024-03-08T12:43:01;12.70;99.90
26336;DHT22;14047;50.936;4.654;2024-03-08T12:45:28;12.70;99.90
26336;DHT22;14047;50.936;4.654;2024-03-08T12:47:55;12.80;99.90
26336;DHT22;14047;50.936;4.654;2024-03-08T12:50:22;12.80;99.90
26336;DHT22;14047;50.936;4.654;2024-03-08T12:52:48;12.60;99.90
26336;DHT22;14047;50.936;4.654;2024-03-08T12:55:15;12.70;99.90
26336;DHT22;14047;50.936;4.654;2024-03-08T12:57:42;12.60;99.90
26336;DHT22;14047;50.936;4.654;2024-03-08T13:00:09;12.60;99.90
26336;DHT22;14047;50.936;4.654;2024-03-08T13:02:39;12.70;99.90
26336;DHT22;14047;50.936;4.654;2024-03-08T13:05:09;12.60;99.90
26336;DHT22;14047;50.936;4.654;2024-03-08T13:07:36;12.70;99.90
26336;DHT22;14047;50.936;4.654;2024-03-08T13:10:03;12.40;99.90
26336;DHT22;14047;50.936;4.654;2024-03-08T13:12:30;12.40;99.90
26336;DHT22;14047;50.936;4.654;2024-03-08T13:14:56;12.60;99.90
26336;DHT22;14047;50.936;4.654;2024-03-08T13:17:22;12.70;99.90
26336;DHT22;14047;50.936;4.654;2024-03-08T13:19:48;12.90;99.90
26336;DHT22;14047;50.936;4.654;2024-03-08T13:22:14;13.10;99.90
26336;DHT22;14047;50.936;4.654;2024-03-08T13:24:43;13.20;99.90
26336;DHT22;14047;50.936;4.654;2024-03-08T13:27:11;13.20;99.90
26336;DHT22;14047;50.936;4.654;2024-03-08T13:29:48;13.40;99.90
26336;DHT22;14047;50.936;4.654;2024-03-08T13:32:15;13.50;99.90
26336;DHT22;14047;50.936;4.654;2024-03-08T13:34:42;13.50;99.90
26336;DHT22;14047;50.936;4.654;2024-03-08T13:37:09;13.60;99.90
26336;DHT22;14047;50.936;4.654;2024-03-08T13:39:40;13.60;99.90
26336;DHT22;14047;50.936;4.654;2024-03-08T13:42:10;13.70;99.90
26336;DHT22;14047;50.936;4.654;2024-03-08T13:44:48;13.90;99.90
26336;DHT22;14047;50.936;4.654;2024-03-08T13:47:18;14.00;99.90
26336;DHT22;14047;50.936;4.654;2024-03-08T13:49:44;14.10;99.90
26336;DHT22;14047;50.936;4.654;2024-03-08T13:52:11;14.10;99.90
26336;DHT22;14047;50.936;4.654;2024-03-08T13:54:38;14.00;99.90
26336;DHT22;14047;50.936;4.654;2024-03-08T13:57:04;13.90;99.90
26336;DHT22;14047;50.936;4.654;2024-03-08T13:59:34;13.70;99.90
26336;DHT22;14047;50.936;4.654;2024-03-08T14:02:01;13.70;99.90
26336;DHT22;14047;50.936;4.654;2024-03-08T14:04:31;13.70;99.90
26336;DHT22;14047;50.936;4.654;2024-03-08T14:06:57;13.80;99.90
26336;DHT22;14047;50.936;4.654;2024-03-08T14:09:29;13.90;99.90
26336;DHT22;14047;50.936;4.654;2024-03-08T14:11:56;14.00;99.90
26336;DHT22;14047;50.936;4.654;2024-03-08T14:14:22;14.20;99.90
26336;DHT22;14047;50.936;4.654;2024-03-08T14:16:49;14.30;99.90
26336;DHT22;14047;50.936;4.654;2024-03-08T14:19:19;14.40;99.90
26336;DHT22;14047;50.936;4.654;2024-03-08T14:21:45;14.50;99.90
26336;DHT22;14047;50.936;4.654;2024-03-08T14:24:15;14.40;99.90
26336;DHT22;14047;50.936;4.654;2024-03-08T14:26:42;14.30;99.90
26336;DHT22;14047;50.936;4.654;2024-03-08T14:29:08;14.20;99.90
26336;DHT22;14047;50.936;4.654;2024-03-08T14:31:36;14.30;99.90
26336;DHT22;14047;50.936;4.654;2024-03-08T14:34:02;14.40;99.90
26336;DHT22;14047;50.936;4.654;2024-03-08T14:36:32;14.30;99.90
26336;DHT22;14047;50.936;4.654;2024-03-08T14:38:58;14.20;99.90
26336;DHT22;14047;50.936;4.654;2024-03-08T14:41:24;14.40;99.90
26336;DHT22;14047;50.936;4.654;2024-03-08T14:43:50;14.60;99.90
26336;DHT22;14047;50.936;4.654;2024-03-08T14:46:19;14.70;99.90
26336;DHT22;14047;50.936;4.654;2024-03-08T14:48:52;14.40;99.90
26336;DHT22;14047;50.936;4.654;2024-03-08T14:51:19;14.50;99.90
26336;DHT22;14047;50.936;4.654;2024-03-08T14:53:48;14.60;99.90
26336;DHT22;14047;50.936;4.654;2024-03-08T14:56:15;14.40;99.90
26336;DHT22;14047;50.936;4.654;2024-03-08T14:58:45;14.30;99.90
26336;DHT22;14047;50.936;4.654;2024-03-08T15:01:12;14.30;99.90
26336;DHT22;14047;50.936;4.654;2024-03-08T15:03:44;14.30;99.90
26336;DHT22;14047;50.936;4.654;2024-03-08T15:06:11;14.30;99.90
26336;DHT22;14047;50.936;4.654;2024-03-08T15:08:38;14.50;99.90
26336;DHT22;14047;50.936;4.654;2024-03-08T15:11:06;14.60;99.90
26336;DHT22;14047;50.936;4.654;2024-03-08T15:13:33;14.40;99.90
26336;DHT22;14047;50.936;4.654;2024-03-08T15:16:10;14.60;99.90
26336;DHT22;14047;50.936;4.654;2024-03-08T15:18:44;14.60;99.90
26336;DHT22;14047;50.936;4.654;2024-03-08T15:21:14;14.60;99.90
26336;DHT22;14047;50.936;4.654;2024-03-08T15:23:51;14.50;99.90
26336;DHT22;14047;50.936;4.654;2024-03-08T15:26:18;14.50;99.90
26336;DHT22;14047;50.936;4.654;2024-03-08T15:28:44;14.40;99.90
26336;DHT22;14047;50.936;4.654;2024-03-08T15:31:12;14.30;99.90
26336;DHT22;14047;50.936;4.654;2024-03-08T15:33:41;14.40;99.90
26336;DHT22;14047;50.936;4.654;2024-03-08T15:36:11;14.50;99.90
26336;DHT22;14047;50.936;4.654;2024-03-08T15:38:40;14.60;99.90
26336;DHT22;14047;50.936;4.654;2024-03-08T15:41:06;14.80;99.90
26336;DHT22;14047;50.936;4.654;2024-03-08T15:43:37;14.90;99.90
26336;DHT22;14047;50.936;4.654;2024-03-08T15:46:03;15.30;99.90
26336;DHT22;14047;50.936;4.654;2024-03-08T15:48:33;15.90;99.90
26336;DHT22;14047;50.936;4.654;2024-03-08T15:51:02;16.30;99.90
26336;DHT22;14047;50.936;4.654;2024-03-08T15:53:28;16.70;99.90
26336;DHT22;14047;50.936;4.654;2024-03-08T15:55:58;17.00;99.90
26336;DHT22;14047;50.936;4.654;2024-03-08T15:58:25;17.30;99.90